Time;durP1;ratioP1;P1;durP2;ratioP2;P2;SDS_P1;SDS_P2;PMS_P1;PMS_P2;Temp;Humidity;BMP_temperature;BMP_pressure;BME280_temperature;BME280_humidity;BME280_pressure;Samples;Min_cycle;Max_cycle;Signal;HPM_P1;HPM_P2
2024/01/05 00:00:00;;;;;;;1.43;1.33;;;19.80;46.60;;;;;;4995365;28;20234;-67
2024/01/05 00:02:26;;;;;;;1.43;1.33;;;19.80;46.60;;;;;;4987087;28;20254;-68
2024/01/05 00:04:51;;;;;;;2.13;1.50;;;19.80;46.50;;;;;;4999012;28;21659;-68
2024/01/05 00:07:17;;;;;;;1.40;1.30;;;19.80;46.50;;;;;;4991366;28;20227;-68
2024/01/05 00:09:42;;;;;;;2.03;1.03;;;19.80;46.50;;;;;;4996011;28;20218;-67
2024/01/05 00:12:08;;;;;;;1.40;1.10;;;19.80;46.50;;;;;;4996482;28;20222;-70
2024/01/05 00:14:37;;;;;;;1.20;1.10;;;19.80;46.50;;;;;;4983464;28;20575;-72
2024/01/05 00:17:02;;;;;;;1.50;1.40;;;19.80;46.50;;;;;;4989207;28;23597;-73
2024/01/05 00:19:28;;;;;;;1.40;1.10;;;19.80;46.50;;;;;;4992047;28;20950;-72
2024/01/05 00:21:53;;;;;;;1.63;1.10;;;19.80;46.50;;;;;;4979556;28;20216;-72
2024/01/05 00:24:19;;;;;;;1.33;1.23;;;19.80;46.60;;;;;;4992867;28;20831;-68
2024/01/05 00:26:44;;;;;;;1.50;1.40;;;19.80;46.60;;;;;;4990301;28;20224;-69
2024/01/05 00:29:10;;;;;;;1.40;1.30;;;19.80;46.60;;;;;;4993412;28;20262;-68
2024/01/05 00:31:35;;;;;;;1.10;1.00;;;19.80;46.50;;;;;;4994169;28;20219;-68
2024/01/05 00:34:01;;;;;;;1.53;1.20;;;19.80;46.50;;;;;;4989963;28;20694;-68
2024/01/05 00:36:27;;;;;;;2.17;1.50;;;19.70;46.50;;;;;;4979360;28;20231;-68
2024/01/05 00:38:52;;;;;;;1.13;1.03;;;19.80;46.60;;;;;;4987508;28;20231;-68
2024/01/05 00:41:18;;;;;;;2.30;1.17;;;19.80;46.60;;;;;;4988871;28;20687;-70
2024/01/05 00:43:43;;;;;;;1.40;1.30;;;19.80;46.50;;;;;;4990054;28;20226;-69
2024/01/05 00:46:09;;;;;;;1.70;1.20;;;19.80;46.60;;;;;;4990096;28;20231;-68
2024/01/05 00:48:35;;;;;;;3.07;1.20;;;19.80;46.60;;;;;;4995671;28;20238;-67
2024/01/05 00:51:00;;;;;;;1.20;1.10;;;19.80;46.60;;;;;;4992485;28;20314;-69
2024/01/05 00:53:26;;;;;;;1.20;1.10;;;19.80;46.60;;;;;;4991813;28;20240;-69
2024/01/05 00:55:52;;;;;;;1.10;1.00;;;19.80;46.60;;;;;;4991126;28;20699;-68
2024/01/05 00:58:17;;;;;;;1.20;1.10;;;19.80;46.60;;;;;;4994821;28;21182;-68
2024/01/05 01:00:43;;;;;;;1.33;1.23;;;19.70;46.50;;;;;;4996181;28;20223;-68
2024/01/05 01:03:08;;;;;;;2.30;1.33;;;19.80;46.60;;;;;;4999095;28;20302;-68
2024/01/05 01:05:34;;;;;;;1.67;1.40;;;19.80;46.60;;;;;;4995369;28;20220;-68
2024/01/05 01:08:00;;;;;;;4.20;1.40;;;19.80;46.60;;;;;;4991409;28;21105;-69
2024/01/05 01:10:25;;;;;;;1.70;1.20;;;19.70;46.50;;;;;;4988881;28;20223;-68
2024/01/05 01:12:51;;;;;;;1.20;1.10;;;19.70;46.40;;;;;;4990891;28;21238;-68
2024/01/05 01:15:17;;;;;;;1.40;1.10;;;19.70;46.50;;;;;;4988164;28;20242;-68
2024/01/05 01:17:42;;;;;;;1.20;1.03;;;19.70;46.40;;;;;;4991846;28;20346;-70
2024/01/05 01:20:08;;;;;;;1.23;1.13;;;19.70;46.40;;;;;;4996446;28;20214;-68
2024/01/05 01:22:34;;;;;;;1.10;1.00;;;19.70;46.50;;;;;;4994105;28;20220;-67
2024/01/05 01:24:59;;;;;;;1.33;1.23;;;19.70;46.50;;;;;;4988733;28;20240;-69
2024/01/05 01:27:25;;;;;;;1.30;1.20;;;19.80;46.60;;;;;;4992836;28;20231;-67
2024/01/05 01:29:51;;;;;;;1.70;1.00;;;19.70;46.50;;;;;;4989928;28;20673;-68
2024/01/05 01:32:16;;;;;;;1.57;1.30;;;19.70;46.50;;;;;;4993228;28;20309;-73
2024/01/05 01:34:42;;;;;;;1.10;1.00;;;19.70;46.50;;;;;;4998799;28;20306;-73
2024/01/05 01:37:07;;;;;;;1.00;0.90;;;19.70;46.50;;;;;;4992208;28;20231;-73
2024/01/05 01:39:33;;;;;;;1.27;1.10;;;19.70;46.50;;;;;;4994162;28;20246;-72
2024/01/05 01:41:59;;;;;;;1.33;1.23;;;19.70;46.40;;;;;;4993895;28;20223;-73
2024/01/05 01:44:25;;;;;;;1.20;1.10;;;19.70;46.50;;;;;;4988213;28;20455;-72
2024/01/05 01:46:54;;;;;;;1.20;1.00;;;19.70;46.50;;;;;;4976417;28;20468;-73
2024/01/05 01:49:20;;;;;;;1.10;1.00;;;19.70;46.50;;;;;;4994303;28;20223;-71
2024/01/05 01:51:46;;;;;;;1.30;1.20;;;19.70;46.50;;;;;;4993509;28;20432;-72
2024/01/05 01:54:12;;;;;;;0.90;0.80;;;19.70;46.50;;;;;;4996842;28;20959;-72
2024/01/05 01:56:38;;;;;;;1.17;1.07;;;19.70;46.50;;;;;;4992692;28;20467;-72
2024/01/05 01:59:05;;;;;;;1.20;1.10;;;19.70;46.50;;;;;;4990220;28;20269;-71
2024/01/05 02:01:31;;;;;;;1.23;1.13;;;19.70;46.50;;;;;;4989967;28;20524;-73
2024/01/05 02:03:57;;;;;;;1.33;1.23;;;19.70;46.50;;;;;;4994364;28;20554;-67
2024/01/05 02:06:23;;;;;;;1.30;0.93;;;19.70;46.50;;;;;;4993419;28;20436;-68
2024/01/05 02:08:50;;;;;;;2.50;1.20;;;19.70;46.50;;;;;;4994008;28;20447;-69
2024/01/05 02:11:16;;;;;;;1.10;1.00;;;19.70;46.40;;;;;;4992566;28;20306;-67
2024/01/05 02:13:42;;;;;;;1.40;1.30;;;19.70;46.50;;;;;;4996289;28;20522;-67
2024/01/05 02:16:07;;;;;;;1.10;1.00;;;19.70;46.50;;;;;;4991499;28;20242;-66
2024/01/05 02:18:33;;;;;;;1.40;1.10;;;19.70;46.40;;;;;;4986881;28;20913;-69
2024/01/05 02:21:02;;;;;;;1.33;1.00;;;19.70;46.40;;;;;;4984999;28;20225;-67
2024/01/05 02:23:28;;;;;;;1.30;1.20;;;19.70;46.40;;;;;;4986341;28;20267;-68
2024/01/05 02:25:58;;;;;;;1.30;1.20;;;19.70;47.20;;;;;;4986795;28;20437;-68
2024/01/05 02:28:24;;;;;;;1.17;1.07;;;19.70;46.40;;;;;;4997329;28;20470;-66
2024/01/05 02:30:53;;;;;;;1.30;1.20;;;19.70;46.50;;;;;;4985838;28;20511;-67
2024/01/05 02:33:18;;;;;;;1.33;1.23;;;19.70;46.50;;;;;;4989708;28;20435;-68
2024/01/05 02:35:44;;;;;;;1.17;1.07;;;19.70;46.40;;;;;;4992303;28;20466;-67
2024/01/05 02:38:09;;;;;;;1.97;1.03;;;19.70;46.50;;;;;;4995645;28;20228;-67
2024/01/05 02:40:35;;;;;;;1.20;1.10;;;19.70;46.40;;;;;;4994209;28;21895;-67
2024/01/05 02:43:01;;;;;;;1.03;0.93;;;19.70;46.40;;;;;;4993182;28;20297;-67
2024/01/05 02:45:26;;;;;;;0.90;0.90;;;19.70;46.40;;;;;;4993233;28;20710;-67
2024/01/05 02:47:52;;;;;;;1.67;1.13;;;19.70;46.40;;;;;;4992772;28;20208;-67
2024/01/05 02:50:19;;;;;;;2.10;1.17;;;19.70;46.40;;;;;;4975697;28;20628;-66
2024/01/05 02:52:45;;;;;;;1.20;1.03;;;19.70;46.40;;;;;;4994933;28;20220;-66
2024/01/05 02:55:12;;;;;;;1.13;1.03;;;19.70;46.40;;;;;;4989939;28;20858;-66
2024/01/05 02:57:39;;;;;;;1.00;0.87;;;19.70;46.50;;;;;;4994582;28;20482;-67
2024/01/05 03:00:05;;;;;;;1.40;1.07;;;19.70;46.40;;;;;;4994098;28;20558;-66
2024/01/05 03:02:31;;;;;;;1.20;1.10;;;19.70;46.40;;;;;;4985655;28;20472;-66
2024/01/05 03:04:57;;;;;;;1.60;0.97;;;19.70;46.40;;;;;;4987329;28;21014;-67
2024/01/05 03:07:23;;;;;;;1.20;1.03;;;19.70;46.40;;;;;;4997143;28;20216;-67
2024/01/05 03:09:49;;;;;;;3.10;1.07;;;19.70;46.40;;;;;;4995798;28;20439;-66
2024/01/05 03:12:16;;;;;;;1.10;1.00;;;19.70;46.50;;;;;;4988698;28;20227;-69
2024/01/05 03:14:42;;;;;;;1.00;0.90;;;19.70;46.50;;;;;;4991097;28;20215;-67
2024/01/05 03:17:07;;;;;;;1.77;1.47;;;19.70;46.40;;;;;;4992683;28;20449;-67
2024/01/05 03:19:33;;;;;;;1.13;1.00;;;19.70;46.40;;;;;;4987105;28;20285;-67
2024/01/05 03:21:58;;;;;;;1.13;1.03;;;19.70;46.40;;;;;;4990875;28;20223;-67
2024/01/05 03:24:24;;;;;;;1.00;0.90;;;19.70;46.40;;;;;;4991671;28;20301;-72
2024/01/05 03:26:49;;;;;;;1.20;1.10;;;19.70;46.40;;;;;;4993107;28;20256;-72
2024/01/05 03:29:16;;;;;;;1.00;0.90;;;19.70;46.30;;;;;;4989673;28;20219;-72
2024/01/05 03:31:45;;;;;;;1.00;0.87;;;19.70;46.30;;;;;;4993876;28;20457;-72
2024/01/05 03:34:11;;;;;;;1.00;0.90;;;19.70;46.30;;;;;;4993987;28;20451;-68
2024/01/05 03:36:37;;;;;;;1.13;1.03;;;19.70;46.40;;;;;;4995028;28;20467;-67
2024/01/05 03:39:03;;;;;;;1.27;1.00;;;19.70;46.40;;;;;;4994834;28;20437;-67
2024/01/05 03:41:29;;;;;;;1.00;0.90;;;19.70;46.30;;;;;;4984570;28;20216;-66
2024/01/05 03:43:54;;;;;;;1.07;0.97;;;19.70;46.30;;;;;;4982983;28;20451;-67
2024/01/05 03:46:20;;;;;;;1.90;1.10;;;19.70;46.30;;;;;;4994017;28;20227;-67
2024/01/05 03:48:46;;;;;;;1.10;1.00;;;19.70;46.30;;;;;;4982314;28;20264;-68
2024/01/05 03:51:11;;;;;;;1.10;1.00;;;19.70;46.30;;;;;;4993898;28;20675;-67
2024/01/05 03:53:37;;;;;;;1.10;1.00;;;19.70;46.30;;;;;;4988418;28;20228;-66
2024/01/05 03:56:03;;;;;;;2.33;1.10;;;19.70;46.30;;;;;;4974707;28;20382;-70
2024/01/05 03:58:29;;;;;;;1.23;1.00;;;19.70;46.30;;;;;;4985822;28;20231;-67
2024/01/05 04:00:54;;;;;;;0.97;0.93;;;19.70;46.30;;;;;;4989753;28;20464;-67
2024/01/05 04:03:20;;;;;;;1.20;1.10;;;19.70;46.30;;;;;;4992785;28;20229;-73
2024/01/05 04:05:46;;;;;;;1.23;0.80;;;19.70;46.30;;;;;;4996804;28;20219;-72
2024/01/05 04:08:12;;;;;;;1.00;0.90;;;19.70;46.30;;;;;;4994586;28;20227;-71
2024/01/05 04:10:39;;;;;;;1.00;0.90;;;19.70;46.30;;;;;;4990920;28;20713;-72
2024/01/05 04:13:05;;;;;;;1.40;1.30;;;19.70;46.30;;;;;;4989748;28;20485;-69
2024/01/05 04:15:35;;;;;;;0.90;0.80;;;19.70;46.30;;;;;;4993021;28;20428;-72
2024/01/05 04:18:01;;;;;;;1.20;1.10;;;19.70;46.30;;;;;;4991632;28;21046;-69
2024/01/05 04:20:26;;;;;;;1.20;1.10;;;19.70;46.30;;;;;;4995199;28;20424;-72
2024/01/05 04:22:52;;;;;;;1.13;0.93;;;19.70;46.30;;;;;;4988057;28;20210;-73
2024/01/05 04:25:17;;;;;;;1.43;1.00;;;19.70;46.30;;;;;;4999049;28;20259;-69
2024/01/05 04:27:43;;;;;;;1.13;0.90;;;19.70;46.30;;;;;;4994891;28;20988;-70
2024/01/05 04:30:09;;;;;;;0.93;0.80;;;19.70;46.30;;;;;;4993494;28;20228;-73
2024/01/05 04:32:35;;;;;;;1.30;1.20;;;19.70;46.30;;;;;;4999112;28;20233;-71
2024/01/05 04:35:00;;;;;;;1.83;1.10;;;19.70;46.30;;;;;;4988253;28;22224;-73
2024/01/05 04:37:26;;;;;;;1.40;1.00;;;19.70;46.30;;;;;;5000448;28;20251;-73
2024/01/05 04:39:51;;;;;;;1.20;0.90;;;19.70;46.30;;;;;;4999992;28;20215;-71
2024/01/05 04:42:17;;;;;;;0.90;0.70;;;19.70;46.30;;;;;;4994729;28;20243;-69
2024/01/05 04:44:42;;;;;;;0.90;0.80;;;19.70;46.30;;;;;;4993298;28;20675;-71
2024/01/05 04:47:08;;;;;;;1.00;0.90;;;19.70;46.30;;;;;;4996049;28;20215;-72
2024/01/05 04:49:34;;;;;;;1.30;1.00;;;19.70;46.20;;;;;;4983205;28;20261;-70
2024/01/05 04:52:00;;;;;;;0.90;0.80;;;19.70;46.20;;;;;;4999437;28;20331;-73
2024/01/05 04:54:26;;;;;;;1.00;0.90;;;19.70;46.20;;;;;;4991922;28;20583;-72
2024/01/05 04:56:51;;;;;;;1.33;1.00;;;19.70;46.20;;;;;;4992924;28;20447;-72
2024/01/05 04:59:17;;;;;;;0.70;0.70;;;19.70;46.20;;;;;;4997787;28;20235;-73
2024/01/05 05:01:42;;;;;;;0.93;0.83;;;19.80;46.20;;;;;;4993646;28;20683;-70
2024/01/05 05:04:08;;;;;;;0.80;0.80;;;19.70;46.10;;;;;;4984765;28;20723;-73
2024/01/05 05:06:34;;;;;;;0.97;0.87;;;19.70;46.10;;;;;;4989993;28;20632;-72
2024/01/05 05:08:59;;;;;;;1.20;1.07;;;19.80;46.10;;;;;;4995494;28;20224;-72
2024/01/05 05:11:25;;;;;;;1.20;0.80;;;19.80;46.10;;;;;;4989643;28;20691;-73
2024/01/05 05:13:50;;;;;;;1.00;0.80;;;19.80;46.10;;;;;;5000044;28;20215;-72
2024/01/05 05:16:16;;;;;;;1.33;1.23;;;19.80;46.10;;;;;;4998536;28;20216;-73
2024/01/05 05:18:41;;;;;;;0.80;0.80;;;19.80;46.10;;;;;;4983565;28;20425;-71
2024/01/05 05:21:07;;;;;;;1.00;0.90;;;19.80;46.10;;;;;;4980864;28;20306;-73
2024/01/05 05:23:32;;;;;;;1.13;1.03;;;19.80;46.00;;;;;;4999477;28;23051;-72
2024/01/05 05:25:58;;;;;;;1.73;1.00;;;19.80;46.00;;;;;;4999436;28;20835;-71
2024/01/05 05:28:24;;;;;;;1.27;0.80;;;19.80;46.10;;;;;;4998344;28;20220;-72
2024/01/05 05:30:50;;;;;;;0.90;0.80;;;19.80;45.90;;;;;;4993280;28;20335;-71
2024/01/05 05:33:15;;;;;;;1.10;1.00;;;19.80;45.90;;;;;;4995093;28;20819;-67
2024/01/05 05:35:41;;;;;;;1.13;0.90;;;19.90;46.00;;;;;;4996157;28;20468;-66
2024/01/05 05:38:06;;;;;;;1.20;1.10;;;19.80;45.90;;;;;;4982627;28;20235;-70
2024/01/05 05:40:32;;;;;;;1.13;0.80;;;19.90;46.00;;;;;;4991344;28;20223;-69
2024/01/05 05:42:58;;;;;;;1.30;1.10;;;19.90;46.00;;;;;;4982005;28;20229;-69
2024/01/05 05:45:23;;;;;;;1.33;1.10;;;19.90;46.00;;;;;;4976406;28;20243;-68
2024/01/05 05:47:50;;;;;;;1.20;1.10;;;19.90;46.00;;;;;;4992252;28;20307;-69
2024/01/05 05:50:15;;;;;;;0.90;0.80;;;19.90;45.90;;;;;;4990012;28;20754;-71
2024/01/05 05:52:43;;;;;;;0.90;0.77;;;19.80;45.80;;;;;;4982208;28;20419;-68
2024/01/05 05:55:12;;;;;;;2.00;1.10;;;19.80;45.90;;;;;;4987760;28;20687;-68
2024/01/05 05:57:40;;;;;;;1.10;1.00;;;19.90;45.90;;;;;;4995979;28;20754;-68
2024/01/05 06:00:07;;;;;;;1.17;1.07;;;19.90;45.90;;;;;;4972020;28;20973;-69
2024/01/05 06:02:32;;;;;;;1.00;0.90;;;19.90;45.80;;;;;;4995512;28;20873;-68
2024/01/05 06:04:58;;;;;;;1.80;0.90;;;19.80;45.70;;;;;;4990924;28;20437;-69
2024/01/05 06:07:24;;;;;;;1.10;1.00;;;19.90;45.80;;;;;;4996886;28;20219;-67
2024/01/05 06:09:50;;;;;;;0.87;0.87;;;19.90;45.80;;;;;;4995364;28;20329;-69
2024/01/05 06:12:17;;;;;;;1.20;0.90;;;19.80;45.60;;;;;;4990914;28;20223;-69
2024/01/05 06:14:44;;;;;;;1.10;1.00;;;19.90;45.70;;;;;;4986419;28;20461;-68
2024/01/05 06:17:09;;;;;;;4.03;1.10;;;19.90;45.80;;;;;;4979700;28;20463;-72
2024/01/05 06:19:35;;;;;;;2.07;1.00;;;19.90;45.70;;;;;;4991040;28;20561;-69
2024/01/05 06:22:00;;;;;;;1.20;0.97;;;19.90;45.70;;;;;;4987088;28;20281;-70
2024/01/05 06:24:26;;;;;;;3.00;0.90;;;19.90;45.60;;;;;;4990652;28;20215;-71
2024/01/05 06:26:52;;;;;;;0.90;0.87;;;19.90;45.60;;;;;;4996227;28;20228;-68
2024/01/05 06:29:17;;;;;;;0.93;0.80;;;19.80;45.50;;;;;;4997714;28;20268;-70
2024/01/05 06:31:43;;;;;;;1.10;1.00;;;19.90;45.60;;;;;;5000186;28;21111;-71
2024/01/05 06:34:08;;;;;;;1.77;0.80;;;19.90;45.50;;;;;;4998733;28;20250;-69
2024/01/05 06:36:34;;;;;;;1.00;0.80;;;19.90;45.60;;;;;;4996852;28;20290;-68
2024/01/05 06:39:00;;;;;;;1.33;1.03;;;19.80;45.30;;;;;;4994751;28;20235;-69
2024/01/05 06:41:25;;;;;;;0.87;0.80;;;19.90;45.50;;;;;;4989648;28;20224;-69
2024/01/05 06:43:51;;;;;;;1.10;1.00;;;19.80;45.40;;;;;;4991301;28;20254;-73
2024/01/05 06:46:17;;;;;;;1.17;0.93;;;19.90;45.50;;;;;;4988108;28;20863;-72
2024/01/05 06:48:42;;;;;;;1.00;0.90;;;19.90;45.50;;;;;;4989133;28;20281;-73
2024/01/05 06:51:08;;;;;;;1.00;0.80;;;19.80;45.30;;;;;;4989503;28;20460;-72
2024/01/05 06:53:33;;;;;;;0.90;0.80;;;19.80;45.30;;;;;;4974631;28;20691;-68
2024/01/05 06:55:59;;;;;;;1.47;0.80;;;19.80;45.30;;;;;;4984047;28;20220;-69
2024/01/05 06:58:25;;;;;;;0.90;0.80;;;19.90;45.30;;;;;;4984791;28;20238;-71
2024/01/05 07:00:50;;;;;;;1.23;1.00;;;19.80;45.30;;;;;;4994968;28;20246;-71
2024/01/05 07:03:16;;;;;;;0.90;0.80;;;19.90;45.30;;;;;;4998630;28;20219;-72
2024/01/05 07:05:41;;;;;;;1.10;1.00;;;19.90;45.30;;;;;;4996721;28;20363;-72
2024/01/05 07:08:07;;;;;;;1.17;0.83;;;19.90;45.30;;;;;;4992625;28;20219;-72
2024/01/05 07:10:33;;;;;;;1.30;0.80;;;19.90;45.30;;;;;;4995374;28;21164;-72
2024/01/05 07:12:59;;;;;;;0.90;0.80;;;19.90;45.30;;;;;;4998343;28;20825;-69
2024/01/05 07:15:25;;;;;;;0.90;0.80;;;19.90;45.30;;;;;;4992065;28;20428;-68
2024/01/05 07:17:50;;;;;;;1.00;0.80;;;19.80;45.20;;;;;;4985267;28;20228;-68
2024/01/05 07:20:16;;;;;;;1.10;1.00;;;19.90;45.20;;;;;;4992839;28;20220;-69
2024/01/05 07:22:41;;;;;;;1.30;1.20;;;19.90;45.20;;;;;;5001903;28;20219;-69
2024/01/05 07:25:10;;;;;;;0.97;0.87;;;19.90;45.30;;;;;;4996853;28;20687;-68
2024/01/05 07:27:36;;;;;;;1.00;0.90;;;19.90;45.20;;;;;;4987581;28;20663;-68
2024/01/05 07:30:04;;;;;;;0.90;0.80;;;19.90;46.00;;;;;;4995652;28;20465;-68
2024/01/05 07:32:29;;;;;;;1.07;0.80;;;19.90;45.20;;;;;;4994552;28;20417;-68
2024/01/05 07:34:55;;;;;;;0.80;0.80;;;19.90;45.20;;;;;;4995660;28;20425;-69
2024/01/05 07:37:21;;;;;;;3.20;0.80;;;19.80;45.10;;;;;;4966107;28;20771;-70
2024/01/05 07:39:47;;;;;;;1.23;0.80;;;19.80;45.10;;;;;;4983938;28;20274;-70
2024/01/05 07:42:12;;;;;;;0.73;0.70;;;19.90;45.10;;;;;;4995149;28;20448;-69
2024/01/05 07:44:39;;;;;;;0.97;0.70;;;19.90;45.10;;;;;;4992310;28;20317;-69
2024/01/05 07:47:05;;;;;;;0.90;0.80;;;19.90;45.10;;;;;;4994721;28;20560;-69
2024/01/05 07:49:30;;;;;;;0.83;0.80;;;19.90;45.10;;;;;;4996469;28;20373;-69
2024/01/05 07:51:56;;;;;;;0.80;0.80;;;19.90;45.10;;;;;;4995563;28;20224;-70
2024/01/05 07:54:21;;;;;;;0.70;0.70;;;19.90;45.00;;;;;;4997700;28;20221;-68
2024/01/05 07:56:47;;;;;;;0.90;0.80;;;19.80;44.90;;;;;;4992749;28;20742;-71
2024/01/05 07:59:14;;;;;;;0.90;0.80;;;19.80;44.90;;;;;;4996317;28;20258;-70
2024/01/05 08:01:40;;;;;;;1.40;1.07;;;19.90;44.90;;;;;;4992306;28;20232;-69
2024/01/05 08:04:05;;;;;;;0.70;0.60;;;19.90;44.90;;;;;;4989897;28;20524;-69
2024/01/05 08:06:31;;;;;;;0.90;0.80;;;19.90;45.00;;;;;;4990908;28;20868;-68
2024/01/05 08:08:56;;;;;;;0.70;0.70;;;19.90;44.90;;;;;;4990462;28;20258;-67
2024/01/05 08:11:22;;;;;;;0.70;0.60;;;19.90;44.90;;;;;;4995487;28;20227;-69
2024/01/05 08:13:47;;;;;;;1.07;0.97;;;19.90;44.80;;;;;;4993846;28;20243;-70
2024/01/05 08:16:13;;;;;;;1.20;0.80;;;19.90;44.70;;;;;;4992109;28;20310;-69
2024/01/05 08:18:40;;;;;;;0.87;0.80;;;19.80;44.60;;;;;;4994909;28;20318;-71
2024/01/05 08:21:06;;;;;;;0.77;0.70;;;19.80;44.70;;;;;;4991671;28;21170;-70
2024/01/05 08:23:34;;;;;;;1.10;0.83;;;19.80;44.60;;;;;;4986068;28;20473;-69
2024/01/05 08:26:00;;;;;;;0.77;0.63;;;19.80;44.60;;;;;;4996050;28;20277;-70
2024/01/05 08:28:26;;;;;;;0.90;0.80;;;19.80;44.50;;;;;;4993267;28;20447;-69
2024/01/05 08:30:52;;;;;;;3.33;0.70;;;19.80;44.50;;;;;;4985269;28;20220;-71
2024/01/05 08:33:18;;;;;;;0.90;0.90;;;19.80;44.50;;;;;;4993121;28;20231;-70
2024/01/05 08:35:43;;;;;;;0.80;0.70;;;19.80;44.50;;;;;;4992115;28;20322;-71
2024/01/05 08:38:09;;;;;;;0.90;0.60;;;19.80;44.50;;;;;;4996106;28;20234;-69
2024/01/05 08:40:34;;;;;;;1.20;0.80;;;19.80;44.50;;;;;;4991644;28;20220;-69
2024/01/05 08:43:00;;;;;;;1.00;0.80;;;19.80;44.50;;;;;;4984931;28;20219;-70
2024/01/05 08:45:27;;;;;;;0.80;0.60;;;19.80;44.50;;;;;;4993124;28;20215;-69
2024/01/05 08:47:53;;;;;;;1.30;0.80;;;19.80;44.50;;;;;;4995961;28;20583;-69
2024/01/05 08:50:19;;;;;;;0.97;0.87;;;19.80;44.50;;;;;;4987380;28;21027;-71
2024/01/05 08:52:45;;;;;;;0.70;0.70;;;19.80;44.50;;;;;;4991014;28;20446;-73
2024/01/05 08:55:14;;;;;;;1.43;0.70;;;19.80;44.50;;;;;;4994549;28;20710;-74
2024/01/05 08:57:40;;;;;;;1.00;0.70;;;19.70;44.40;;;;;;4990511;28;20487;-73
2024/01/05 09:00:09;;;;;;;0.70;0.60;;;19.70;44.40;;;;;;4992843;28;20498;-75
2024/01/05 09:02:35;;;;;;;1.73;0.70;;;19.80;44.50;;;;;;4994695;28;20699;-72
2024/01/05 09:05:04;;;;;;;1.10;0.70;;;19.80;44.50;;;;;;4980953;28;20488;-70
2024/01/05 09:07:30;;;;;;;0.90;0.67;;;19.70;44.40;;;;;;4991045;28;20473;-68
2024/01/05 09:09:55;;;;;;;0.90;0.70;;;19.70;44.40;;;;;;4999347;28;20485;-68
2024/01/05 09:12:21;;;;;;;0.80;0.63;;;19.70;44.40;;;;;;4998347;28;20451;-70
2024/01/05 09:14:47;;;;;;;0.87;0.67;;;19.70;44.40;;;;;;4998172;28;20231;-70
2024/01/05 09:17:12;;;;;;;2.03;0.87;;;19.70;44.40;;;;;;4994004;28;20227;-69
2024/01/05 09:19:38;;;;;;;0.80;0.63;;;19.70;44.20;;;;;;4983444;28;20302;-72
2024/01/05 09:22:04;;;;;;;1.10;0.70;;;19.70;44.10;;;;;;4991715;28;20694;-72
2024/01/05 09:24:29;;;;;;;0.67;0.57;;;19.70;44.00;;;;;;4983252;28;20227;-69
2024/01/05 09:26:55;;;;;;;0.90;0.70;;;19.70;44.00;;;;;;5001906;28;20228;-69
2024/01/05 09:29:21;;;;;;;0.77;0.60;;;19.70;44.00;;;;;;4997262;28;20226;-69
2024/01/05 09:31:47;;;;;;;0.70;0.60;;;19.70;43.90;;;;;;4994695;28;20465;-70
2024/01/05 09:34:13;;;;;;;1.00;0.60;;;19.70;43.80;;;;;;4995994;28;20234;-70
2024/01/05 09:36:41;;;;;;;0.80;0.60;;;19.70;43.80;;;;;;5000291;28;20239;-68
2024/01/05 09:39:08;;;;;;;0.70;0.57;;;19.70;43.80;;;;;;4993901;28;20461;-69
2024/01/05 09:41:34;;;;;;;1.30;0.80;;;19.70;43.70;;;;;;4997771;28;20958;-70
2024/01/05 09:44:02;;;;;;;0.80;0.60;;;19.70;43.70;;;;;;4992808;28;20435;-69
2024/01/05 09:46:28;;;;;;;0.80;0.60;;;19.70;43.80;;;;;;4984758;28;20229;-69
2024/01/05 09:48:56;;;;;;;0.90;0.70;;;19.70;43.70;;;;;;4998921;28;20493;-68
2024/01/05 09:51:22;;;;;;;0.83;0.70;;;19.70;43.80;;;;;;4984522;28;20451;-69
2024/01/05 09:53:48;;;;;;;0.90;0.80;;;19.70;43.70;;;;;;4998216;28;20469;-68
2024/01/05 09:56:15;;;;;;;1.00;0.90;;;19.70;43.80;;;;;;4991439;28;20465;-68
2024/01/05 09:58:43;;;;;;;0.77;0.60;;;19.70;43.70;;;;;;4994884;28;22164;-67
2024/01/05 10:01:19;;;;;;;0.90;0.70;;;19.70;43.70;;;;;;4995951;28;21033;-69
2024/01/05 10:03:45;;;;;;;0.80;0.73;;;19.70;43.80;;;;;;4994807;28;20432;-78
2024/01/05 10:06:15;;;;;;;1.93;0.60;;;19.70;43.80;;;;;;4979758;28;20467;-76
2024/01/05 10:08:41;;;;;;;1.33;0.70;;;19.70;43.80;;;;;;4999037;28;20508;-76
2024/01/05 10:11:07;;;;;;;1.53;0.57;;;19.70;43.80;;;;;;4994446;28;20825;-73
2024/01/05 10:13:32;;;;;;;1.77;0.70;;;19.70;43.80;;;;;;4995613;28;20588;-74
2024/01/05 10:16:00;;;;;;;1.30;0.70;;;19.70;43.80;;;;;;4996645;28;20243;-75
2024/01/05 10:18:29;;;;;;;0.90;0.60;;;19.70;43.90;;;;;;4998462;28;20254;-76
2024/01/05 10:20:57;;;;;;;1.07;0.50;;;19.70;43.80;;;;;;4994351;28;20472;-75
2024/01/05 10:23:23;;;;;;;0.70;0.60;;;19.70;43.80;;;;;;4995773;28;21016;-76
2024/01/05 10:25:49;;;;;;;1.10;0.93;;;19.70;43.80;;;;;;4984961;28;20989;-73
2024/01/05 10:28:29;;;;;;;0.70;0.60;;;19.70;43.90;;;;;;4990565;28;20449;-75
2024/01/05 10:31:10;;;;;;;0.80;0.80;;;19.70;43.90;;;;;;4982296;28;20428;-76
2024/01/05 10:33:51;;;;;;;1.27;0.50;;;19.70;43.90;;;;;;4984784;28;20878;-75
2024/01/05 10:36:20;;;;;;;0.80;0.50;;;19.70;43.90;;;;;;4996816;28;20563;-76
2024/01/05 10:38:47;;;;;;;0.70;0.50;;;19.70;43.90;;;;;;4999838;28;20559;-75
2024/01/05 10:41:13;;;;;;;0.83;0.60;;;19.70;44.00;;;;;;4992670;28;20439;-72
2024/01/05 10:43:41;;;;;;;1.43;0.57;;;19.70;44.00;;;;;;4992946;28;20792;-75
2024/01/05 10:46:11;;;;;;;0.70;0.50;;;19.70;44.00;;;;;;4997891;28;20223;-75
2024/01/05 10:48:39;;;;;;;1.10;0.70;;;19.70;44.00;;;;;;4996021;28;20967;-75
2024/01/05 10:51:06;;;;;;;621.43;42.73;;;19.70;44.10;;;;;;5000452;28;21261;-73
2024/01/05 10:53:34;;;;;;;5.07;1.00;;;19.70;43.80;;;;;;4990771;28;20985;-75
2024/01/05 10:56:01;;;;;;;0.80;0.50;;;19.70;43.70;;;;;;4990689;28;20477;-72
2024/01/05 10:58:27;;;;;;;1.00;0.60;;;19.70;43.70;;;;;;4990449;28;20461;-72
2024/01/05 11:00:57;;;;;;;0.90;0.70;;;19.70;43.70;;;;;;4991641;28;20436;-72
2024/01/05 11:03:25;;;;;;;0.90;0.57;;;19.70;43.70;;;;;;4988047;28;20318;-72
2024/01/05 11:05:51;;;;;;;0.97;0.60;;;19.70;43.80;;;;;;4993747;28;20448;-71
2024/01/05 11:08:43;;;;;;;0.70;0.50;;;19.70;43.80;;;;;;4995590;28;20859;-73
2024/01/05 11:11:17;;;;;;;0.70;0.60;;;19.70;43.90;;;;;;4984370;28;20231;-73
2024/01/05 11:13:53;;;;;;;4.80;0.60;;;19.70;43.80;;;;;;4991050;28;20442;-73
2024/01/05 11:16:43;;;;;;;0.60;0.50;;;19.70;43.90;;;;;;4995186;28;20847;-72
2024/01/05 11:19:45;;;;;;;0.70;0.50;;;19.70;44.00;;;;;;4996511;28;20538;-71
2024/01/05 11:22:14;;;;;;;0.60;0.50;;;19.70;43.90;;;;;;4995281;28;21827;-73
2024/01/05 11:24:41;;;;;;;0.60;0.50;;;19.70;43.90;;;;;;4990470;28;20468;-73
2024/01/05 11:27:28;;;;;;;0.70;0.50;;;19.70;43.90;;;;;;4998577;28;20969;-72
2024/01/05 11:29:54;;;;;;;0.60;0.50;;;19.70;44.00;;;;;;4987091;28;20964;-72
2024/01/05 11:32:49;;;;;;;0.73;0.73;;;19.70;44.00;;;;;;4995846;28;20472;-71
2024/01/05 11:35:21;;;;;;;0.80;0.80;;;19.70;44.00;;;;;;4992767;28;20541;-72
2024/01/05 11:37:49;;;;;;;0.60;0.50;;;19.70;44.00;;;;;;4993001;28;20453;-73
2024/01/05 11:40:29;;;;;;;0.70;0.50;;;19.70;44.00;;;;;;4978536;28;20818;-73
2024/01/05 11:42:58;;;;;;;0.60;0.50;;;19.70;44.10;;;;;;4990413;28;20440;-73
2024/01/05 11:45:44;;;;;;;0.60;0.50;;;19.70;44.10;;;;;;4982241;28;20858;-73
2024/01/05 11:48:09;;;;;;;0.63;0.50;;;19.70;44.10;;;;;;4992897;28;20445;-72
2024/01/05 11:50:38;;;;;;;0.60;0.50;;;19.70;44.10;;;;;;4990376;28;20440;-71
2024/01/05 11:53:27;;;;;;;1.43;0.53;;;19.70;44.20;;;;;;4992519;28;20341;-73
2024/01/05 11:55:58;;;;;;;0.60;0.50;;;19.70;44.10;;;;;;4977903;28;20496;-74
2024/01/05 11:58:28;;;;;;;2.60;0.73;;;19.70;44.10;;;;;;4995156;28;20879;-74
2024/01/05 12:00:56;;;;;;;0.70;0.60;;;19.70;44.10;;;;;;4988046;28;21261;-73
2024/01/05 12:03:24;;;;;;;0.60;0.40;;;19.70;44.20;;;;;;4988877;28;20439;-72
2024/01/05 12:05:59;;;;;;;0.60;0.50;;;19.70;44.30;;;;;;4995766;28;20846;-71
2024/01/05 12:08:25;;;;;;;0.70;0.53;;;19.70;44.20;;;;;;4990268;28;20995;-73
2024/01/05 12:10:54;;;;;;;0.83;0.60;;;19.70;44.30;;;;;;4992281;28;20457;-71
2024/01/05 12:13:26;;;;;;;0.67;0.50;;;19.70;44.30;;;;;;4996468;28;20231;-72
2024/01/05 12:15:58;;;;;;;0.70;0.60;;;19.70;44.40;;;;;;4993136;28;20475;-73
2024/01/05 12:18:27;;;;;;;0.70;0.50;;;19.70;44.40;;;;;;4992777;28;21205;-74
2024/01/05 12:20:53;;;;;;;0.90;0.50;;;19.60;44.30;;;;;;4996022;28;20562;-72
2024/01/05 12:23:19;;;;;;;0.67;0.53;;;19.60;44.30;;;;;;4994531;28;20441;-73
2024/01/05 12:25:45;;;;;;;0.70;0.50;;;19.70;44.40;;;;;;4993867;28;20423;-71
2024/01/05 12:28:14;;;;;;;0.70;0.50;;;19.70;44.40;;;;;;4995387;28;20572;-72
2024/01/05 12:30:41;;;;;;;0.60;0.50;;;19.70;44.40;;;;;;4996274;28;20223;-73
2024/01/05 12:33:07;;;;;;;0.70;0.40;;;19.70;44.40;;;;;;4993118;28;20544;-70
2024/01/05 12:35:32;;;;;;;0.60;0.50;;;19.60;44.30;;;;;;4996420;28;20454;-71
2024/01/05 12:38:00;;;;;;;0.60;0.50;;;19.70;44.40;;;;;;4993840;28;20436;-70
2024/01/05 12:40:28;;;;;;;2.03;0.50;;;19.70;44.50;;;;;;4994736;28;20258;-71
2024/01/05 12:42:54;;;;;;;0.60;0.50;;;19.70;44.40;;;;;;4993596;28;20444;-67